sensor_id;sensor_type;location;lat;lon;timestamp;temperature;humidity
61016;DHT22;46902;52.920;6.536;2023-02-02T00:01:42;4.70;99.90
61016;DHT22;46902;52.920;6.536;2023-02-02T00:04:27;4.70;99.90
61016;DHT22;46902;52.920;6.536;2023-02-02T00:06:53;4.70;99.90
61016;DHT22;46902;52.920;6.536;2023-02-02T00:09:21;4.70;99.90
61016;DHT22;46902;52.920;6.536;2023-02-02T00:11:48;4.70;99.90
61016;DHT22;46902;52.920;6.536;2023-02-02T00:14:14;4.70;99.90
61016;DHT22;46902;52.920;6.536;2023-02-02T00:16:42;4.70;99.90
61016;DHT22;46902;52.920;6.536;2023-02-02T00:19:23;4.70;99.90
61016;DHT22;46902;52.920;6.536;2023-02-02T00:21:51;4.80;99.90
61016;DHT22;46902;52.920;6.536;2023-02-02T00:24:17;4.70;99.90
61016;DHT22;46902;52.920;6.536;2023-02-02T00:26:49;4.80;99.90
61016;DHT22;46902;52.920;6.536;2023-02-02T00:29:18;4.80;99.90
61016;DHT22;46902;52.920;6.536;2023-02-02T00:31:44;4.90;99.90
61016;DHT22;46902;52.920;6.536;2023-02-02T00:34:11;4.90;99.90
61016;DHT22;46902;52.920;6.536;2023-02-02T00:36:37;4.90;99.90
61016;DHT22;46902;52.920;6.536;2023-02-02T00:39:03;5.00;99.90
61016;DHT22;46902;52.920;6.536;2023-02-02T00:41:28;4.90;99.90
61016;DHT22;46902;52.920;6.536;2023-02-02T00:43:54;5.00;99.90
61016;DHT22;46902;52.920;6.536;2023-02-02T00:46:39;5.00;99.90
61016;DHT22;46902;52.920;6.536;2023-02-02T00:49:05;5.10;99.90
61016;DHT22;46902;52.920;6.536;2023-02-02T00:51:31;5.00;99.90
61016;DHT22;46902;52.920;6.536;2023-02-02T00:53:56;5.10;99.90
61016;DHT22;46902;52.920;6.536;2023-02-02T00:56:23;5.10;99.90
61016;DHT22;46902;52.920;6.536;2023-02-02T00:58:50;5.20;99.90
61016;DHT22;46902;52.920;6.536;2023-02-02T01:01:17;5.20;99.90
61016;DHT22;46902;52.920;6.536;2023-02-02T01:03:43;5.30;99.90
61016;DHT22;46902;52.920;6.536;2023-02-02T01:06:09;5.30;99.90
61016;DHT22;46902;52.920;6.536;2023-02-02T01:08:34;5.30;99.90
61016;DHT22;46902;52.920;6.536;2023-02-02T01:11:00;5.30;99.90
61016;DHT22;46902;52.920;6.536;2023-02-02T01:13:25;5.20;99.90
61016;DHT22;46902;52.920;6.536;2023-02-02T01:15:58;5.30;99.90
61016;DHT22;46902;52.920;6.536;2023-02-02T01:18:25;5.30;99.90
61016;DHT22;46902;52.920;6.536;2023-02-02T01:20:58;5.40;99.90
61016;DHT22;46902;52.920;6.536;2023-02-02T01:23:24;5.30;99.90
61016;DHT22;46902;52.920;6.536;2023-02-02T01:25:57;5.40;99.90
61016;DHT22;46902;52.920;6.536;2023-02-02T01:28:23;5.40;99.90
61016;DHT22;46902;52.920;6.536;2023-02-02T01:30:49;5.40;99.90
61016;DHT22;46902;52.920;6.536;2023-02-02T01:33:16;5.40;99.90
61016;DHT22;46902;52.920;6.536;2023-02-02T01:35:53;5.40;99.90
61016;DHT22;46902;52.920;6.536;2023-02-02T01:38:20;5.50;99.90
61016;DHT22;46902;52.920;6.536;2023-02-02T01:40:54;5.50;99.90
61016;DHT22;46902;52.920;6.536;2023-02-02T01:45:49;5.50;99.90
61016;DHT22;46902;52.920;6.536;2023-02-02T01:48:17;5.50;99.90
61016;DHT22;46902;52.920;6.536;2023-02-02T01:50:45;5.60;99.90
61016;DHT22;46902;52.920;6.536;2023-02-02T01:53:13;5.60;99.90
61016;DHT22;46902;52.920;6.536;2023-02-02T01:55:40;5.70;99.90
61016;DHT22;46902;52.920;6.536;2023-02-02T02:00:35;5.70;99.90
61016;DHT22;46902;52.920;6.536;2023-02-02T02:03:09;5.70;99.90
61016;DHT22;46902;52.920;6.536;2023-02-02T02:05:42;5.70;99.90
61016;DHT22;46902;52.920;6.536;2023-02-02T02:08:28;5.80;99.90
61016;DHT22;46902;52.920;6.536;2023-02-02T02:10:54;5.70;99.90
61016;DHT22;46902;52.920;6.536;2023-02-02T02:13:21;5.80;99.90
61016;DHT22;46902;52.920;6.536;2023-02-02T02:16:04;5.80;99.90
61016;DHT22;46902;52.920;6.536;2023-02-02T02:19:06;5.80;99.90
61016;DHT22;46902;52.920;6.536;2023-02-02T02:27:59;5.90;99.90
61016;DHT22;46902;52.920;6.536;2023-02-02T02:30:56;6.00;99.90
61016;DHT22;46902;52.920;6.536;2023-02-02T02:33:38;6.00;99.90
61016;DHT22;46902;52.920;6.536;2023-02-02T02:36:18;6.00;99.90
61016;DHT22;46902;52.920;6.536;2023-02-02T02:39:02;6.00;99.90
61016;DHT22;46902;52.920;6.536;2023-02-02T02:41:32;6.00;99.90
61016;DHT22;46902;52.920;6.536;2023-02-02T02:44:09;6.00;99.90
61016;DHT22;46902;52.920;6.536;2023-02-02T02:46:36;6.00;99.90
61016;DHT22;46902;52.920;6.536;2023-02-02T02:49:02;6.10;99.90
61016;DHT22;46902;52.920;6.536;2023-02-02T02:52:01;6.10;99.90
61016;DHT22;46902;52.920;6.536;2023-02-02T02:54:33;6.20;99.90
61016;DHT22;46902;52.920;6.536;2023-02-02T03:05:31;6.20;99.90
61016;DHT22;46902;52.920;6.536;2023-02-02T03:08:11;6.30;99.90
61016;DHT22;46902;52.920;6.536;2023-02-02T03:10:40;6.30;99.90
61016;DHT22;46902;52.920;6.536;2023-02-02T03:13:08;6.30;99.90
61016;DHT22;46902;52.920;6.536;2023-02-02T03:15:42;6.30;99.90
61016;DHT22;46902;52.920;6.536;2023-02-02T03:18:08;6.30;99.90
61016;DHT22;46902;52.920;6.536;2023-02-02T03:20:34;6.40;99.90
61016;DHT22;46902;52.920;6.536;2023-02-02T03:23:00;6.40;99.90
61016;DHT22;46902;52.920;6.536;2023-02-02T03:25:26;6.30;99.90
61016;DHT22;46902;52.920;6.536;2023-02-02T03:27:52;6.30;99.90
61016;DHT22;46902;52.920;6.536;2023-02-02T03:30:18;6.30;99.90
61016;DHT22;46902;52.920;6.536;2023-02-02T03:32:44;6.30;99.90
61016;DHT22;46902;52.920;6.536;2023-02-02T03:35:10;6.30;99.90
61016;DHT22;46902;52.920;6.536;2023-02-02T03:37:35;6.30;99.90
61016;DHT22;46902;52.920;6.536;2023-02-02T03:40:01;6.30;99.90
61016;DHT22;46902;52.920;6.536;2023-02-02T03:42:27;6.30;99.90
61016;DHT22;46902;52.920;6.536;2023-02-02T03:44:52;6.30;99.90
61016;DHT22;46902;52.920;6.536;2023-02-02T03:47:18;6.30;99.90
61016;DHT22;46902;52.920;6.536;2023-02-02T03:49:43;6.20;99.90
61016;DHT22;46902;52.920;6.536;2023-02-02T03:52:09;6.20;99.90
61016;DHT22;46902;52.920;6.536;2023-02-02T03:54:34;6.20;99.90
61016;DHT22;46902;52.920;6.536;2023-02-02T03:57:00;6.20;99.90
61016;DHT22;46902;52.920;6.536;2023-02-02T03:59:25;6.20;99.90
61016;DHT22;46902;52.920;6.536;2023-02-02T04:01:51;6.20;99.90
61016;DHT22;46902;52.920;6.536;2023-02-02T04:04:17;6.10;99.90
61016;DHT22;46902;52.920;6.536;2023-02-02T04:06:42;6.20;99.90
61016;DHT22;46902;52.920;6.536;2023-02-02T04:09:08;6.10;99.90
61016;DHT22;46902;52.920;6.536;2023-02-02T04:11:33;6.10;99.90
61016;DHT22;46902;52.920;6.536;2023-02-02T04:13:59;6.10;99.90
61016;DHT22;46902;52.920;6.536;2023-02-02T04:16:25;6.20;99.90
61016;DHT22;46902;52.920;6.536;2023-02-02T04:18:50;6.10;99.90
61016;DHT22;46902;52.920;6.536;2023-02-02T04:21:16;6.10;99.90
61016;DHT22;46902;52.920;6.536;2023-02-02T04:23:41;6.00;99.90
61016;DHT22;46902;52.920;6.536;2023-02-02T04:26:07;6.00;99.90
61016;DHT22;46902;52.920;6.536;2023-02-02T04:28:32;6.00;99.90
61016;DHT22;46902;52.920;6.536;2023-02-02T04:30:58;6.00;99.90
61016;DHT22;46902;52.920;6.536;2023-02-02T04:33:25;6.00;99.90
61016;DHT22;46902;52.920;6.536;2023-02-02T04:35:51;6.00;99.90
61016;DHT22;46902;52.920;6.536;2023-02-02T04:38:17;5.90;99.90
61016;DHT22;46902;52.920;6.536;2023-02-02T04:40:44;5.90;99.90
61016;DHT22;46902;52.920;6.536;2023-02-02T04:43:10;5.90;99.90
61016;DHT22;46902;52.920;6.536;2023-02-02T04:45:37;5.90;99.90
61016;DHT22;46902;52.920;6.536;2023-02-02T04:48:03;5.90;99.90
61016;DHT22;46902;52.920;6.536;2023-02-02T04:50:29;5.90;99.90
61016;DHT22;46902;52.920;6.536;2023-02-02T04:52:55;5.90;99.90
61016;DHT22;46902;52.920;6.536;2023-02-02T04:55:21;5.90;99.90
61016;DHT22;46902;52.920;6.536;2023-02-02T04:57:47;5.90;99.90
61016;DHT22;46902;52.920;6.536;2023-02-02T05:00:13;5.80;99.90
61016;DHT22;46902;52.920;6.536;2023-02-02T05:02:40;5.80;99.90
61016;DHT22;46902;52.920;6.536;2023-02-02T05:05:09;5.80;99.90
61016;DHT22;46902;52.920;6.536;2023-02-02T05:07:35;5.90;99.90
61016;DHT22;46902;52.920;6.536;2023-02-02T05:10:01;5.80;99.90
61016;DHT22;46902;52.920;6.536;2023-02-02T05:12:27;5.80;99.90
61016;DHT22;46902;52.920;6.536;2023-02-02T05:14:52;5.80;99.90
61016;DHT22;46902;52.920;6.536;2023-02-02T05:17:18;5.80;99.90
61016;DHT22;46902;52.920;6.536;2023-02-02T05:19:43;5.80;99.90
61016;DHT22;46902;52.920;6.536;2023-02-02T05:22:09;5.80;99.90
61016;DHT22;46902;52.920;6.536;2023-02-02T05:24:35;5.80;99.90
61016;DHT22;46902;52.920;6.536;2023-02-02T05:27:00;5.80;99.90
61016;DHT22;46902;52.920;6.536;2023-02-02T05:29:27;5.80;99.90
61016;DHT22;46902;52.920;6.536;2023-02-02T05:31:53;5.80;99.90
61016;DHT22;46902;52.920;6.536;2023-02-02T05:34:19;5.80;99.90
61016;DHT22;46902;52.920;6.536;2023-02-02T05:36:45;5.80;99.90
61016;DHT22;46902;52.920;6.536;2023-02-02T05:39:11;5.80;99.90
61016;DHT22;46902;52.920;6.536;2023-02-02T05:41:36;5.70;99.90
61016;DHT22;46902;52.920;6.536;2023-02-02T05:44:02;5.70;99.90
61016;DHT22;46902;52.920;6.536;2023-02-02T05:46:29;5.70;99.90
61016;DHT22;46902;52.920;6.536;2023-02-02T05:48:54;5.80;99.90
61016;DHT22;46902;52.920;6.536;2023-02-02T05:51:26;5.80;99.90
61016;DHT22;46902;52.920;6.536;2023-02-02T05:53:53;5.80;99.90
61016;DHT22;46902;52.920;6.536;2023-02-02T05:56:19;5.70;99.90
61016;DHT22;46902;52.920;6.536;2023-02-02T05:58:45;5.70;99.90
61016;DHT22;46902;52.920;6.536;2023-02-02T06:01:14;5.70;99.90
61016;DHT22;46902;52.920;6.536;2023-02-02T06:03:40;5.70;99.90
61016;DHT22;46902;52.920;6.536;2023-02-02T06:06:06;5.70;99.90
61016;DHT22;46902;52.920;6.536;2023-02-02T06:08:31;5.70;99.90
61016;DHT22;46902;52.920;6.536;2023-02-02T06:10:57;5.70;99.90
61016;DHT22;46902;52.920;6.536;2023-02-02T06:13:23;5.70;99.90
61016;DHT22;46902;52.920;6.536;2023-02-02T06:15:48;5.60;99.90
61016;DHT22;46902;52.920;6.536;2023-02-02T06:18:14;5.60;99.90
61016;DHT22;46902;52.920;6.536;2023-02-02T06:20:39;5.70;99.90
61016;DHT22;46902;52.920;6.536;2023-02-02T06:23:05;5.60;99.90
61016;DHT22;46902;52.920;6.536;2023-02-02T06:25:31;5.60;99.90
61016;DHT22;46902;52.920;6.536;2023-02-02T06:27:57;5.70;99.90
61016;DHT22;46902;52.920;6.536;2023-02-02T06:30:24;5.70;99.90
61016;DHT22;46902;52.920;6.536;2023-02-02T06:32:50;5.70;99.90
61016;DHT22;46902;52.920;6.536;2023-02-02T06:35:15;5.60;99.90
61016;DHT22;46902;52.920;6.536;2023-02-02T06:37:41;5.70;99.90
61016;DHT22;46902;52.920;6.536;2023-02-02T06:40:07;5.60;99.90
61016;DHT22;46902;52.920;6.536;2023-02-02T06:42:33;5.70;99.90
61016;DHT22;46902;52.920;6.536;2023-02-02T06:44:59;5.70;99.90
61016;DHT22;46902;52.920;6.536;2023-02-02T06:47:24;5.60;99.90
61016;DHT22;46902;52.920;6.536;2023-02-02T06:49:50;5.70;99.90
61016;DHT22;46902;52.920;6.536;2023-02-02T06:52:15;5.70;99.90
61016;DHT22;46902;52.920;6.536;2023-02-02T06:54:41;5.70;99.90
61016;DHT22;46902;52.920;6.536;2023-02-02T06:57:07;5.70;99.90
61016;DHT22;46902;52.920;6.536;2023-02-02T06:59:33;5.80;99.90
61016;DHT22;46902;52.920;6.536;2023-02-02T07:01:59;5.70;99.90
61016;DHT22;46902;52.920;6.536;2023-02-02T07:04:25;5.80;99.90
61016;DHT22;46902;52.920;6.536;2023-02-02T07:06:50;5.80;99.90
61016;DHT22;46902;52.920;6.536;2023-02-02T07:09:16;5.70;99.90
61016;DHT22;46902;52.920;6.536;2023-02-02T07:11:42;5.70;99.90
61016;DHT22;46902;52.920;6.536;2023-02-02T07:14:07;5.70;99.90
61016;DHT22;46902;52.920;6.536;2023-02-02T07:16:34;5.80;99.90
61016;DHT22;46902;52.920;6.536;2023-02-02T07:18:59;5.70;99.90
61016;DHT22;46902;52.920;6.536;2023-02-02T07:21:26;5.70;99.90
61016;DHT22;46902;52.920;6.536;2023-02-02T07:24:03;5.70;99.90
61016;DHT22;46902;52.920;6.536;2023-02-02T07:26:29;5.70;99.90
61016;DHT22;46902;52.920;6.536;2023-02-02T07:28:54;5.70;99.90
61016;DHT22;46902;52.920;6.536;2023-02-02T07:31:23;5.70;99.90
61016;DHT22;46902;52.920;6.536;2023-02-02T07:33:49;5.80;99.90
61016;DHT22;46902;52.920;6.536;2023-02-02T07:36:17;5.70;99.90
61016;DHT22;46902;52.920;6.536;2023-02-02T07:38:45;5.80;99.90
61016;DHT22;46902;52.920;6.536;2023-02-02T07:41:11;5.80;99.90
61016;DHT22;46902;52.920;6.536;2023-02-02T07:43:37;5.80;99.90
61016;DHT22;46902;52.920;6.536;2023-02-02T07:46:05;5.80;99.90
61016;DHT22;46902;52.920;6.536;2023-02-02T07:48:33;5.80;99.90
61016;DHT22;46902;52.920;6.536;2023-02-02T07:51:03;5.80;99.90
61016;DHT22;46902;52.920;6.536;2023-02-02T07:53:30;5.80;99.90
61016;DHT22;46902;52.920;6.536;2023-02-02T07:56:09;5.90;99.90
61016;DHT22;46902;52.920;6.536;2023-02-02T07:58:35;5.80;99.90
61016;DHT22;46902;52.920;6.536;2023-02-02T08:01:03;5.90;99.90
61016;DHT22;46902;52.920;6.536;2023-02-02T08:03:29;5.90;99.90
61016;DHT22;46902;52.920;6.536;2023-02-02T08:05:55;5.90;99.90
61016;DHT22;46902;52.920;6.536;2023-02-02T08:08:21;5.90;99.90
61016;DHT22;46902;52.920;6.536;2023-02-02T08:10:47;6.00;99.90
61016;DHT22;46902;52.920;6.536;2023-02-02T08:13:13;5.90;99.90
61016;DHT22;46902;52.920;6.536;2023-02-02T08:15:39;6.00;99.90
61016;DHT22;46902;52.920;6.536;2023-02-02T08:18:04;5.90;99.90
61016;DHT22;46902;52.920;6.536;2023-02-02T08:20:30;6.00;99.90
61016;DHT22;46902;52.920;6.536;2023-02-02T08:22:55;6.00;99.90
61016;DHT22;46902;52.920;6.536;2023-02-02T08:25:21;6.00;99.90
61016;DHT22;46902;52.920;6.536;2023-02-02T08:27:47;6.00;99.90
61016;DHT22;46902;52.920;6.536;2023-02-02T08:30:12;5.90;99.90
61016;DHT22;46902;52.920;6.536;2023-02-02T08:32:38;6.00;99.90
61016;DHT22;46902;52.920;6.536;2023-02-02T08:35:05;6.00;99.90
61016;DHT22;46902;52.920;6.536;2023-02-02T08:37:30;6.00;99.90
61016;DHT22;46902;52.920;6.536;2023-02-02T08:39:56;6.00;99.90
61016;DHT22;46902;52.920;6.536;2023-02-02T08:42:21;6.10;99.90
61016;DHT22;46902;52.920;6.536;2023-02-02T08:44:47;6.00;99.90
61016;DHT22;46902;52.920;6.536;2023-02-02T08:47:13;6.10;99.90
61016;DHT22;46902;52.920;6.536;2023-02-02T08:49:39;6.10;99.90
61016;DHT22;46902;52.920;6.536;2023-02-02T08:52:06;6.10;99.90
61016;DHT22;46902;52.920;6.536;2023-02-02T08:54:32;6.10;99.90
61016;DHT22;46902;52.920;6.536;2023-02-02T08:56:58;6.10;99.90
61016;DHT22;46902;52.920;6.536;2023-02-02T08:59:23;6.10;99.90
61016;DHT22;46902;52.920;6.536;2023-02-02T09:01:49;6.10;99.90
61016;DHT22;46902;52.920;6.536;2023-02-02T09:04:15;6.20;99.90
61016;DHT22;46902;52.920;6.536;2023-02-02T09:06:41;6.30;99.90
61016;DHT22;46902;52.920;6.536;2023-02-02T09:09:10;6.30;99.90
61016;DHT22;46902;52.920;6.536;2023-02-02T09:11:37;6.30;99.90
61016;DHT22;46902;52.920;6.536;2023-02-02T09:14:03;6.40;99.90
61016;DHT22;46902;52.920;6.536;2023-02-02T09:16:31;6.40;99.90
61016;DHT22;46902;52.920;6.536;2023-02-02T09:18:58;6.40;99.90
61016;DHT22;46902;52.920;6.536;2023-02-02T09:21:23;6.50;99.90
61016;DHT22;46902;52.920;6.536;2023-02-02T09:23:50;6.50;99.90
61016;DHT22;46902;52.920;6.536;2023-02-02T09:26:19;6.50;99.90
61016;DHT22;46902;52.920;6.536;2023-02-02T09:28:51;6.50;99.90
61016;DHT22;46902;52.920;6.536;2023-02-02T09:31:17;6.50;99.90
61016;DHT22;46902;52.920;6.536;2023-02-02T09:33:43;6.60;99.90
61016;DHT22;46902;52.920;6.536;2023-02-02T09:38:38;6.60;99.90
61016;DHT22;46902;52.920;6.536;2023-02-02T09:44:36;6.70;99.90
61016;DHT22;46902;52.920;6.536;2023-02-02T09:47:33;6.60;99.90
61016;DHT22;46902;52.920;6.536;2023-02-02T09:56:03;6.70;99.90
61016;DHT22;46902;52.920;6.536;2023-02-02T09:58:33;6.70;99.90
61016;DHT22;46902;52.920;6.536;2023-02-02T10:01:11;6.70;99.90
61016;DHT22;46902;52.920;6.536;2023-02-02T10:06:38;6.80;99.90
61016;DHT22;46902;52.920;6.536;2023-02-02T10:09:12;6.70;99.90
61016;DHT22;46902;52.920;6.536;2023-02-02T10:14:53;6.80;99.90
61016;DHT22;46902;52.920;6.536;2023-02-02T10:19:55;6.80;99.90
61016;DHT22;46902;52.920;6.536;2023-02-02T10:22:26;7.00;99.90
61016;DHT22;46902;52.920;6.536;2023-02-02T10:24:55;6.90;99.90
61016;DHT22;46902;52.920;6.536;2023-02-02T10:27:37;7.00;99.90
61016;DHT22;46902;52.920;6.536;2023-02-02T10:30:18;7.00;99.90
61016;DHT22;46902;52.920;6.536;2023-02-02T10:32:53;7.00;99.90
61016;DHT22;46902;52.920;6.536;2023-02-02T10:35:44;7.00;99.90
61016;DHT22;46902;52.920;6.536;2023-02-02T10:38:20;7.00;99.90
61016;DHT22;46902;52.920;6.536;2023-02-02T10:41:19;7.00;99.90
61016;DHT22;46902;52.920;6.536;2023-02-02T10:49:29;7.00;99.90
61016;DHT22;46902;52.920;6.536;2023-02-02T10:52:18;7.00;99.90
61016;DHT22;46902;52.920;6.536;2023-02-02T10:54:50;7.00;99.90
61016;DHT22;46902;52.920;6.536;2023-02-02T11:02:49;7.00;99.90
61016;DHT22;46902;52.920;6.536;2023-02-02T11:05:23;7.00;99.90
61016;DHT22;46902;52.920;6.536;2023-02-02T11:10:53;7.00;99.90
61016;DHT22;46902;52.920;6.536;2023-02-02T11:13:29;7.00;99.90
61016;DHT22;46902;52.920;6.536;2023-02-02T11:18:39;7.00;99.90
61016;DHT22;46902;52.920;6.536;2023-02-02T11:24:01;7.00;99.90
61016;DHT22;46902;52.920;6.536;2023-02-02T11:26:47;7.00;99.90
61016;DHT22;46902;52.920;6.536;2023-02-02T11:32:29;7.00;99.90
61016;DHT22;46902;52.920;6.536;2023-02-02T11:42:57;7.00;99.90
61016;DHT22;46902;52.920;6.536;2023-02-02T11:45:33;7.00;99.90
61016;DHT22;46902;52.920;6.536;2023-02-02T11:48:19;7.00;99.90
61016;DHT22;46902;52.920;6.536;2023-02-02T11:50:49;7.00;99.90
61016;DHT22;46902;52.920;6.536;2023-02-02T11:53:44;6.90;99.90
61016;DHT22;46902;52.920;6.536;2023-02-02T11:56:37;6.90;99.90
61016;DHT22;46902;52.920;6.536;2023-02-02T11:59:04;6.90;99.90
61016;DHT22;46902;52.920;6.536;2023-02-02T12:01:31;6.90;99.90
61016;DHT22;46902;52.920;6.536;2023-02-02T12:04:02;6.90;99.90
61016;DHT22;46902;52.920;6.536;2023-02-02T12:08:59;6.90;99.90
61016;DHT22;46902;52.920;6.536;2023-02-02T12:28:59;6.80;99.90
61016;DHT22;46902;52.920;6.536;2023-02-02T12:31:32;6.80;99.90
61016;DHT22;46902;52.920;6.536;2023-02-02T12:34:21;6.70;99.90
61016;DHT22;46902;52.920;6.536;2023-02-02T12:37:44;6.70;99.90
61016;DHT22;46902;52.920;6.536;2023-02-02T12:43:10;6.60;99.90
61016;DHT22;46902;52.920;6.536;2023-02-02T12:46:43;6.70;99.90
61016;DHT22;46902;52.920;6.536;2023-02-02T12:57:52;6.80;99.90
61016;DHT22;46902;52.920;6.536;2023-02-02T13:08:32;6.90;99.90
61016;DHT22;46902;52.920;6.536;2023-02-02T13:11:16;6.80;99.90
61016;DHT22;46902;52.920;6.536;2023-02-02T13:16:44;6.90;99.90
61016;DHT22;46902;52.920;6.536;2023-02-02T13:19:41;6.80;99.90
61016;DHT22;46902;52.920;6.536;2023-02-02T13:22:09;6.80;99.90
61016;DHT22;46902;52.920;6.536;2023-02-02T13:24:41;6.80;99.90
61016;DHT22;46902;52.920;6.536;2023-02-02T13:27:09;6.80;99.90
61016;DHT22;46902;52.920;6.536;2023-02-02T13:29:41;6.80;99.90
61016;DHT22;46902;52.920;6.536;2023-02-02T13:32:21;6.70;99.90
61016;DHT22;46902;52.920;6.536;2023-02-02T13:35:04;6.70;99.90
61016;DHT22;46902;52.920;6.536;2023-02-02T13:37:41;6.80;99.90
61016;DHT22;46902;52.920;6.536;2023-02-02T13:40:29;6.80;99.90
61016;DHT22;46902;52.920;6.536;2023-02-02T13:43:21;6.80;99.90
61016;DHT22;46902;52.920;6.536;2023-02-02T13:57:35;6.80;99.90
61016;DHT22;46902;52.920;6.536;2023-02-02T14:00:30;6.90;99.90
61016;DHT22;46902;52.920;6.536;2023-02-02T14:03:19;6.90;99.90
61016;DHT22;46902;52.920;6.536;2023-02-02T14:06:05;6.90;99.90
61016;DHT22;46902;52.920;6.536;2023-02-02T14:08:32;7.00;99.90
61016;DHT22;46902;52.920;6.536;2023-02-02T14:11:00;7.00;99.90
61016;DHT22;46902;52.920;6.536;2023-02-02T14:19:03;7.20;99.90
61016;DHT22;46902;52.920;6.536;2023-02-02T14:24:00;7.30;99.90
61016;DHT22;46902;52.920;6.536;2023-02-02T14:26:45;7.30;99.90
61016;DHT22;46902;52.920;6.536;2023-02-02T14:34:35;7.40;99.90
61016;DHT22;46902;52.920;6.536;2023-02-02T14:48:45;7.40;99.90
61016;DHT22;46902;52.920;6.536;2023-02-02T14:51:42;7.50;99.90
61016;DHT22;46902;52.920;6.536;2023-02-02T14:54:05;7.50;99.90
61016;DHT22;46902;52.920;6.536;2023-02-02T14:56:49;7.50;99.90
61016;DHT22;46902;52.920;6.536;2023-02-02T14:59:23;7.60;99.90
61016;DHT22;46902;52.920;6.536;2023-02-02T15:02:19;7.50;99.90
61016;DHT22;46902;52.920;6.536;2023-02-02T15:04:46;7.50;99.90
61016;DHT22;46902;52.920;6.536;2023-02-02T15:09:47;7.50;99.90
61016;DHT22;46902;52.920;6.536;2023-02-02T15:17:23;7.50;99.90
61016;DHT22;46902;52.920;6.536;2023-02-02T15:23:04;7.50;99.90
61016;DHT22;46902;52.920;6.536;2023-02-02T15:25:36;7.50;99.90
61016;DHT22;46902;52.920;6.536;2023-02-02T15:30:44;7.50;99.90
61016;DHT22;46902;52.920;6.536;2023-02-02T15:33:30;7.50;99.90
61016;DHT22;46902;52.920;6.536;2023-02-02T15:36:03;7.50;99.90
61016;DHT22;46902;52.920;6.536;2023-02-02T15:38:37;7.50;99.90
61016;DHT22;46902;52.920;6.536;2023-02-02T15:43:37;7.40;99.90
61016;DHT22;46902;52.920;6.536;2023-02-02T15:46:10;7.50;99.90
61016;DHT22;46902;52.920;6.536;2023-02-02T15:48:37;7.50;99.90
61016;DHT22;46902;52.920;6.536;2023-02-02T15:51:06;7.50;99.90
61016;DHT22;46902;52.920;6.536;2023-02-02T15:53:44;7.50;99.90
61016;DHT22;46902;52.920;6.536;2023-02-02T15:58:54;7.50;99.90
61016;DHT22;46902;52.920;6.536;2023-02-02T16:01:22;7.50;99.90
61016;DHT22;46902;52.920;6.536;2023-02-02T16:06:32;7.50;99.90
61016;DHT22;46902;52.920;6.536;2023-02-02T16:09:02;7.50;99.90
61016;DHT22;46902;52.920;6.536;2023-02-02T16:11:28;7.50;99.90
61016;DHT22;46902;52.920;6.536;2023-02-02T16:14:01;7.50;99.90
61016;DHT22;46902;52.920;6.536;2023-02-02T16:16:35;7.50;99.90
61016;DHT22;46902;52.920;6.536;2023-02-02T16:19:12;7.50;99.90
61016;DHT22;46902;52.920;6.536;2023-02-02T16:22:26;7.50;99.90
61016;DHT22;46902;52.920;6.536;2023-02-02T16:24:36;7.50;99.90
61016;DHT22;46902;52.920;6.536;2023-02-02T16:27:11;7.50;99.90
61016;DHT22;46902;52.920;6.536;2023-02-02T16:29:39;7.50;99.90
61016;DHT22;46902;52.920;6.536;2023-02-02T16:32:05;7.50;99.90
61016;DHT22;46902;52.920;6.536;2023-02-02T16:39:37;7.50;99.90
61016;DHT22;46902;52.920;6.536;2023-02-02T16:42:26;7.50;99.90
61016;DHT22;46902;52.920;6.536;2023-02-02T16:44:57;7.50;99.90
61016;DHT22;46902;52.920;6.536;2023-02-02T16:53:19;7.60;99.90
61016;DHT22;46902;52.920;6.536;2023-02-02T16:55:20;7.60;99.90
61016;DHT22;46902;52.920;6.536;2023-02-02T16:57:48;7.50;99.90
61016;DHT22;46902;52.920;6.536;2023-02-02T17:00:28;7.60;99.90
61016;DHT22;46902;52.920;6.536;2023-02-02T17:03:06;7.60;99.90
61016;DHT22;46902;52.920;6.536;2023-02-02T17:05:43;7.60;99.90
61016;DHT22;46902;52.920;6.536;2023-02-02T17:08:09;7.60;99.90
61016;DHT22;46902;52.920;6.536;2023-02-02T17:10:37;7.60;99.90
61016;DHT22;46902;52.920;6.536;2023-02-02T17:15:55;7.60;99.90
61016;DHT22;46902;52.920;6.536;2023-02-02T17:18:21;7.70;99.90
61016;DHT22;46902;52.920;6.536;2023-02-02T17:20:46;7.60;99.90
61016;DHT22;46902;52.920;6.536;2023-02-02T17:23:18;7.70;99.90
61016;DHT22;46902;52.920;6.536;2023-02-02T17:25:44;7.60;99.90
61016;DHT22;46902;52.920;6.536;2023-02-02T17:28:15;7.70;99.90
61016;DHT22;46902;52.920;6.536;2023-02-02T17:30:43;7.70;99.90
61016;DHT22;46902;52.920;6.536;2023-02-02T17:33:14;7.70;99.90
61016;DHT22;46902;52.920;6.536;2023-02-02T17:35:41;7.70;99.90
61016;DHT22;46902;52.920;6.536;2023-02-02T17:38:07;7.70;99.90
61016;DHT22;46902;52.920;6.536;2023-02-02T17:40:33;7.80;99.90
61016;DHT22;46902;52.920;6.536;2023-02-02T17:42:58;7.70;99.90
61016;DHT22;46902;52.920;6.536;2023-02-02T17:45:30;7.80;99.90
61016;DHT22;46902;52.920;6.536;2023-02-02T17:47:55;7.80;99.90
61016;DHT22;46902;52.920;6.536;2023-02-02T17:50:21;7.70;99.90
61016;DHT22;46902;52.920;6.536;2023-02-02T17:52:47;7.80;99.90
61016;DHT22;46902;52.920;6.536;2023-02-02T17:55:21;7.80;99.90
61016;DHT22;46902;52.920;6.536;2023-02-02T17:57:48;7.80;99.90
61016;DHT22;46902;52.920;6.536;2023-02-02T18:00:15;7.80;99.90
61016;DHT22;46902;52.920;6.536;2023-02-02T18:02:41;7.80;99.90
61016;DHT22;46902;52.920;6.536;2023-02-02T18:05:07;7.80;99.90
61016;DHT22;46902;52.920;6.536;2023-02-02T18:07:33;7.80;99.90
61016;DHT22;46902;52.920;6.536;2023-02-02T18:09:58;7.80;99.90
61016;DHT22;46902;52.920;6.536;2023-02-02T18:12:25;7.80;99.90
61016;DHT22;46902;52.920;6.536;2023-02-02T18:14:51;7.80;99.90
61016;DHT22;46902;52.920;6.536;2023-02-02T18:17:17;7.80;99.90
61016;DHT22;46902;52.920;6.536;2023-02-02T18:19:42;7.80;99.90
61016;DHT22;46902;52.920;6.536;2023-02-02T18:22:12;7.80;99.90
61016;DHT22;46902;52.920;6.536;2023-02-02T18:24:39;7.80;99.90
61016;DHT22;46902;52.920;6.536;2023-02-02T18:27:05;7.80;99.90
61016;DHT22;46902;52.920;6.536;2023-02-02T18:29:30;7.80;99.90
61016;DHT22;46902;52.920;6.536;2023-02-02T18:31:59;7.80;99.90
61016;DHT22;46902;52.920;6.536;2023-02-02T18:34:32;7.80;99.90
61016;DHT22;46902;52.920;6.536;2023-02-02T18:36:58;7.80;99.90
61016;DHT22;46902;52.920;6.536;2023-02-02T18:39:23;7.80;99.90
61016;DHT22;46902;52.920;6.536;2023-02-02T18:41:49;7.80;99.90
61016;DHT22;46902;52.920;6.536;2023-02-02T18:44:15;7.80;99.90
61016;DHT22;46902;52.920;6.536;2023-02-02T18:46:40;7.80;99.90
61016;DHT22;46902;52.920;6.536;2023-02-02T18:49:06;7.80;99.90
61016;DHT22;46902;52.920;6.536;2023-02-02T18:51:31;7.80;99.90
61016;DHT22;46902;52.920;6.536;2023-02-02T18:53:57;7.80;99.90
61016;DHT22;46902;52.920;6.536;2023-02-02T18:56:27;7.80;99.90
61016;DHT22;46902;52.920;6.536;2023-02-02T18:58:53;7.80;99.90
61016;DHT22;46902;52.920;6.536;2023-02-02T19:01:20;7.90;99.90
61016;DHT22;46902;52.920;6.536;2023-02-02T19:03:50;7.80;99.90
61016;DHT22;46902;52.920;6.536;2023-02-02T19:06:17;7.90;99.90
61016;DHT22;46902;52.920;6.536;2023-02-02T19:09:02;7.80;99.90